createdAt,value
2019-06-07T00:00:39.555Z,16.57
2019-06-07T00:03:03.629Z,16.17
2019-06-07T00:05:33.797Z,15.23
2019-06-07T00:08:07.355Z,15.57
2019-06-07T00:10:37.177Z,13.87
2019-06-07T00:13:07.033Z,14.43
2019-06-07T00:15:36.846Z,14.33
2019-06-07T00:18:11.153Z,15.13
2019-06-07T00:20:38.926Z,14.57
2019-06-07T00:23:11.375Z,16.40
2019-06-07T00:25:40.247Z,20.33
2019-06-07T00:28:10.691Z,21.93
2019-06-07T00:30:51.228Z,19.60
2019-06-07T00:33:16.568Z,18.03
2019-06-07T00:35:44.513Z,21.07
2019-06-07T00:38:14.908Z,19.63
2019-06-07T00:40:45.990Z,14.73
2019-06-07T00:43:17.569Z,17.70
2019-06-07T00:45:47.407Z,17.47
2019-06-07T00:48:27.422Z,21.60
2019-06-07T00:50:49.465Z,21.23
2019-06-07T00:53:29.136Z,20.43
2019-06-07T00:55:50.836Z,24.93
2019-06-07T00:58:24.748Z,27.00
2019-06-07T01:00:52.319Z,27.67
2019-06-07T01:03:25.661Z,28.87
2019-06-07T01:05:54.096Z,28.20
2019-06-07T01:08:27.707Z,20.63
2019-06-07T01:10:55.521Z,22.70
2019-06-07T01:13:26.894Z,19.87
2019-06-07T01:15:56.806Z,23.23
2019-06-07T01:18:37.366Z,28.87
2019-06-07T01:20:58.521Z,30.23
2019-06-07T01:24:05.346Z,29.77
2019-06-07T01:25:59.820Z,29.47
2019-06-07T01:28:30.078Z,27.50
2019-06-07T01:31:00.211Z,21.07
2019-06-07T01:33:49.926Z,18.43
2019-06-07T01:36:02.316Z,18.47
2019-06-07T01:38:32.226Z,20.60
2019-06-07T01:41:02.106Z,26.53
2019-06-07T01:43:31.988Z,30.60
2019-06-07T01:46:01.898Z,28.90
2019-06-07T01:48:48.610Z,23.13
2019-06-07T01:51:05.202Z,21.47
2019-06-07T01:53:35.307Z,18.43
2019-06-07T01:56:05.186Z,18.80
2019-06-07T01:58:35.079Z,19.23
2019-06-07T02:01:05.060Z,19.77
2019-06-07T02:03:35.260Z,21.37
2019-06-07T02:06:05.103Z,20.80
2019-06-07T02:08:34.966Z,20.50
2019-06-07T02:11:04.914Z,21.20
2019-06-07T02:13:34.814Z,25.77
2019-06-07T02:16:04.825Z,26.67
2019-06-07T02:18:35.226Z,31.83
2019-06-07T02:21:05.187Z,26.53
2019-06-07T02:23:35.101Z,21.27
2019-06-07T02:26:05.002Z,23.40
2019-06-07T02:28:44.992Z,23.47
2019-06-07T02:31:06.475Z,21.30
2019-06-07T02:33:40.098Z,21.90
2019-06-07T02:36:08.628Z,23.27
2019-06-07T02:38:38.515Z,20.63
2019-06-07T02:41:08.618Z,25.10
2019-06-07T02:43:38.496Z,24.60
2019-06-07T02:46:28.100Z,22.70
2019-06-07T02:48:49.731Z,23.93
2019-06-07T02:51:19.598Z,20.43
2019-06-07T02:53:49.570Z,27.43
2019-06-07T02:56:48.609Z,23.47
2019-06-07T02:58:51.000Z,22.30
2019-06-07T03:01:21.283Z,23.97
2019-06-07T03:03:51.967Z,34.43
2019-06-07T03:06:22.913Z,28.80
2019-06-07T03:08:55.283Z,26.40
2019-06-07T03:11:28.214Z,30.20
2019-06-07T03:14:00.248Z,23.43
2019-06-07T03:16:39.259Z,21.83
2019-06-07T03:19:14.576Z,22.10
2019-06-07T03:21:45.379Z,21.73
2019-06-07T03:24:15.252Z,20.60
2019-06-07T03:27:32.190Z,22.10
2019-06-07T03:29:17.197Z,22.67
2019-06-07T03:31:48.165Z,23.13
2019-06-07T03:34:21.616Z,21.73
2019-06-07T03:36:51.411Z,19.20
2019-06-07T03:39:21.288Z,19.17
2019-06-07T03:42:05.767Z,20.73
2019-06-07T03:44:22.656Z,24.90
2019-06-07T03:46:52.487Z,25.17
2019-06-07T03:49:23.157Z,31.20
2019-06-07T03:51:53.020Z,31.30
2019-06-07T03:54:22.815Z,31.03
2019-06-07T03:56:52.722Z,29.43
2019-06-07T03:59:22.571Z,30.37
2019-06-07T04:01:52.394Z,34.27
2019-06-07T04:04:22.685Z,31.40
2019-06-07T04:06:52.578Z,30.67
2019-06-07T04:09:22.434Z,34.77
2019-06-07T04:11:52.309Z,33.53
2019-06-07T04:14:23.391Z,32.97
2019-06-07T04:16:53.579Z,33.10
2019-06-07T04:19:23.904Z,29.57
2019-06-07T04:21:53.735Z,25.97
2019-06-07T04:24:23.576Z,26.13
2019-06-07T04:26:53.528Z,25.40
2019-06-07T04:29:35.682Z,24.03
2019-06-07T04:31:54.868Z,24.40
2019-06-07T04:34:25.120Z,23.73
2019-06-07T04:36:59.479Z,23.57
2019-06-07T04:39:33.589Z,22.70
2019-06-07T04:42:02.694Z,21.47
2019-06-07T04:44:37.073Z,22.73
2019-06-07T04:47:06.974Z,23.07
2019-06-07T04:49:43.315Z,22.97
2019-06-07T04:52:09.043Z,20.67
2019-06-07T04:54:45.603Z,20.67
2019-06-07T04:57:10.441Z,22.33
2019-06-07T05:00:11.130Z,23.40
2019-06-07T05:02:11.662Z,23.57
2019-06-07T05:04:42.451Z,23.30
2019-06-07T05:07:13.545Z,22.17
2019-06-07T05:09:43.529Z,21.37
2019-06-07T05:12:13.353Z,22.63
2019-06-07T05:14:44.370Z,23.33
2019-06-07T05:17:14.237Z,21.87
2019-06-07T05:19:44.867Z,20.07
2019-06-07T05:22:14.895Z,19.00
2019-06-07T05:24:44.628Z,18.60
2019-06-07T05:27:14.485Z,22.77
2019-06-07T05:29:58.384Z,23.73
2019-06-07T05:32:16.269Z,26.10
2019-06-07T05:34:47.500Z,25.17
2019-06-07T05:37:17.595Z,25.33
2019-06-07T05:39:47.396Z,26.30
2019-06-07T05:42:17.243Z,28.37
2019-06-07T05:44:47.135Z,27.80
2019-06-07T05:47:17.063Z,25.17
2019-06-07T05:49:47.563Z,25.50
2019-06-07T05:52:17.333Z,21.33
2019-06-07T05:54:47.238Z,23.53
2019-06-07T05:57:17.093Z,23.13
2019-06-07T05:59:47.770Z,26.70
2019-06-07T06:02:22.540Z,24.37
2019-06-07T06:04:49.779Z,24.37
2019-06-07T06:07:19.976Z,20.40
2019-06-07T06:09:49.821Z,18.43
2019-06-07T06:12:33.906Z,16.50
2019-06-07T06:14:51.230Z,17.93
2019-06-07T06:17:21.085Z,17.70
2019-06-07T06:19:53.423Z,17.37
2019-06-07T06:22:22.865Z,15.53
2019-06-07T06:25:30.850Z,16.00
2019-06-07T06:28:03.518Z,15.43
2019-06-07T06:29:58.569Z,16.47
2019-06-07T06:32:41.996Z,17.07
2019-06-07T06:35:00.395Z,15.63
2019-06-07T06:37:30.299Z,15.03
2019-06-07T06:40:00.078Z,14.43
2019-06-07T06:42:29.932Z,16.03
2019-06-07T06:44:59.984Z,15.73
2019-06-07T06:47:29.859Z,11.40
2019-06-07T06:50:01.863Z,11.07
2019-06-07T06:52:31.911Z,10.87
2019-06-07T06:55:01.796Z,10.57
2019-06-07T06:57:32.469Z,10.90
2019-06-07T07:00:02.324Z,11.70
2019-06-07T07:02:32.376Z,10.53
2019-06-07T07:05:02.421Z,11.10
2019-06-07T07:07:32.420Z,10.83
2019-06-07T07:10:03.258Z,10.53
2019-06-07T07:12:33.615Z,11.10
2019-06-07T07:15:03.432Z,11.57
2019-06-07T07:17:50.821Z,12.00
2019-06-07T07:20:05.492Z,10.27
2019-06-07T07:22:35.390Z,10.13
2019-06-07T07:25:05.884Z,10.33
2019-06-07T07:27:35.874Z,10.60
2019-06-07T07:30:35.352Z,10.47
2019-06-07T07:32:38.126Z,9.20
2019-06-07T07:35:08.590Z,11.23
2019-06-07T07:37:38.484Z,9.27
2019-06-07T07:40:55.458Z,9.60
2019-06-07T07:42:40.510Z,9.40
2019-06-07T07:45:10.486Z,7.90
2019-06-07T07:47:58.447Z,9.10
2019-06-07T07:50:12.254Z,7.60
2019-06-07T07:52:42.102Z,8.30
2019-06-07T07:55:12.204Z,8.43
2019-06-07T07:57:42.059Z,7.73
2019-06-07T08:00:49.387Z,7.10
2019-06-07T08:02:43.557Z,6.80
2019-06-07T08:05:23.233Z,6.40
2019-06-07T08:07:49.975Z,6.53
2019-06-07T08:10:18.219Z,6.70
2019-06-07T08:13:08.766Z,6.70
2019-06-07T08:15:19.675Z,6.53
2019-06-07T08:17:51.594Z,6.37
2019-06-07T08:20:21.485Z,7.57
2019-06-07T08:22:52.538Z,7.53
2019-06-07T08:25:22.929Z,6.90
2019-06-07T08:27:56.024Z,7.13
2019-06-07T08:30:48.010Z,7.30
2019-06-07T08:33:12.043Z,7.40
2019-06-07T08:36:05.701Z,8.87
2019-06-07T08:38:24.915Z,8.70
2019-06-07T08:40:32.504Z,7.60
2019-06-07T08:43:18.171Z,7.73
2019-06-07T08:45:34.180Z,7.70
2019-06-07T08:48:17.948Z,8.37
2019-06-07T08:50:36.158Z,7.30
2019-06-07T08:53:12.137Z,7.63
2019-06-07T08:55:37.596Z,7.30
2019-06-07T08:58:08.740Z,7.33
2019-06-07T09:00:46.017Z,6.93
2019-06-07T09:03:10.602Z,6.70
2019-06-07T09:05:41.595Z,6.70
2019-06-07T09:08:29.121Z,5.80
2019-06-07T09:10:42.937Z,5.73
2019-06-07T09:13:12.752Z,6.17
2019-06-07T09:15:42.620Z,5.43
2019-06-07T09:20:48.722Z,5.27
2019-06-07T09:23:18.828Z,4.50
2019-06-07T09:25:57.502Z,4.97
2019-06-07T09:28:21.266Z,4.47
2019-06-07T09:30:51.146Z,4.40
2019-06-07T09:33:20.985Z,4.50
2019-06-07T09:35:56.175Z,4.57
2019-06-07T09:38:26.856Z,4.00
2019-06-07T09:40:58.047Z,4.00
2019-06-07T09:44:00.548Z,3.70
2019-06-07T09:46:04.035Z,3.53
2019-06-07T09:49:10.125Z,3.73
2019-06-07T09:51:09.771Z,4.10
2019-06-07T09:53:34.837Z,4.03
2019-06-07T09:56:08.742Z,4.20
2019-06-07T09:58:53.966Z,4.40
2019-06-07T10:01:13.131Z,4.40
2019-06-07T10:03:39.583Z,4.47
2019-06-07T10:06:13.662Z,4.00
2019-06-07T10:11:16.637Z,4.47
2019-06-07T10:13:46.447Z,4.33
2019-06-07T10:16:16.326Z,4.13
2019-06-07T10:18:46.233Z,4.30
2019-06-07T10:21:16.155Z,4.30
2019-06-07T10:23:46.011Z,4.47
2019-06-07T10:26:15.882Z,4.37
2019-06-07T10:28:45.867Z,4.10
2019-06-07T10:31:15.719Z,3.93
2019-06-07T10:33:45.615Z,3.97
2019-06-07T10:36:15.835Z,4.20
2019-06-07T10:38:45.657Z,4.03
2019-06-07T10:41:15.552Z,3.87
2019-06-07T10:43:45.391Z,3.73
2019-06-07T10:46:15.321Z,3.87
2019-06-07T10:48:45.191Z,4.23
2019-06-07T10:51:15.406Z,4.60
2019-06-07T10:53:45.255Z,3.97
2019-06-07T10:56:15.136Z,4.83
2019-06-07T10:58:45.008Z,4.37
2019-06-07T11:01:14.822Z,4.57
2019-06-07T11:03:44.693Z,4.47
2019-06-07T11:06:14.537Z,4.20
2019-06-07T11:08:44.529Z,3.90
2019-06-07T11:11:14.521Z,3.90
2019-06-07T11:13:44.646Z,3.40
2019-06-07T11:16:15.719Z,3.90
2019-06-07T11:18:46.098Z,3.27
2019-06-07T11:21:16.268Z,3.03
2019-06-07T11:23:46.089Z,3.30
2019-06-07T11:26:16.021Z,3.17
2019-06-07T11:28:45.894Z,3.40
2019-06-07T11:31:15.715Z,2.77
2019-06-07T11:33:45.543Z,3.37
2019-06-07T11:36:15.764Z,2.93
2019-06-07T11:38:45.879Z,2.83
2019-06-07T11:41:15.964Z,2.73
2019-06-07T11:43:46.124Z,2.50
2019-06-07T11:46:17.194Z,2.63
2019-06-07T11:48:47.552Z,2.60
2019-06-07T11:51:18.839Z,2.60
2019-06-07T11:53:49.144Z,2.83
2019-06-07T11:56:18.995Z,2.60
2019-06-07T11:58:48.846Z,2.60
2019-06-07T12:01:18.768Z,2.33
2019-06-07T12:03:48.682Z,3.60
2019-06-07T12:06:18.513Z,2.40
2019-06-07T12:08:48.452Z,2.70
2019-06-07T12:11:18.505Z,2.33
2019-06-07T12:13:48.450Z,2.00
2019-06-07T12:16:19.406Z,2.00
2019-06-07T12:18:49.661Z,1.80
2019-06-07T12:21:19.942Z,2.23
2019-06-07T12:23:49.941Z,2.10
2019-06-07T12:26:20.676Z,1.83
2019-06-07T12:28:50.706Z,2.30
2019-06-07T12:31:21.178Z,1.80
2019-06-07T12:33:51.240Z,1.90
2019-06-07T12:36:22.041Z,1.63
2019-06-07T12:38:52.538Z,1.80
2019-06-07T12:41:22.477Z,1.87
2019-06-07T12:43:52.357Z,2.00
2019-06-07T12:46:27.957Z,1.97
2019-06-07T12:48:53.622Z,2.03
2019-06-07T12:51:23.960Z,2.00
2019-06-07T12:53:53.815Z,1.93
2019-06-07T12:56:24.206Z,1.90
2019-06-07T12:58:54.289Z,1.90
2019-06-07T13:01:24.864Z,2.00
2019-06-07T13:03:55.032Z,2.30
2019-06-07T13:06:25.103Z,2.60
2019-06-07T13:08:54.959Z,2.00
2019-06-07T13:11:29.565Z,2.00
2019-06-07T13:13:56.521Z,1.80
2019-06-07T13:16:26.409Z,2.00
2019-06-07T13:18:56.434Z,2.40
2019-06-07T13:21:26.516Z,2.33
2019-06-07T13:23:56.363Z,2.43
2019-06-07T13:26:26.303Z,2.50
2019-06-07T13:28:56.150Z,2.20
2019-06-07T13:31:27.249Z,1.87
2019-06-07T13:33:57.235Z,1.90
2019-06-07T13:36:28.490Z,1.83
2019-06-07T13:38:58.727Z,2.00
2019-06-07T13:41:40.292Z,2.10
2019-06-07T13:44:00.172Z,2.07
2019-06-07T13:46:29.989Z,2.03
2019-06-07T13:48:59.845Z,1.90
2019-06-07T13:51:33.244Z,1.80
2019-06-07T13:54:02.298Z,1.70
2019-06-07T13:56:32.150Z,1.80
2019-06-07T13:59:02.013Z,1.80
2019-06-07T14:01:31.829Z,1.50
2019-06-07T14:04:01.824Z,1.40
2019-06-07T14:06:31.815Z,1.60
2019-06-07T14:09:01.706Z,1.80
2019-06-07T14:11:49.119Z,1.70
2019-06-07T14:14:03.277Z,1.70
2019-06-07T14:16:33.106Z,1.70
2019-06-07T14:19:02.988Z,1.80
2019-06-07T14:21:33.184Z,1.70
2019-06-07T14:24:03.007Z,1.70
2019-06-07T14:26:33.102Z,1.67
2019-06-07T14:29:03.058Z,1.90
2019-06-07T14:31:33.161Z,1.80
2019-06-07T14:34:03.376Z,1.80
2019-06-07T14:36:34.014Z,2.10
2019-06-07T14:39:04.974Z,1.87
2019-06-07T14:41:35.354Z,2.00
2019-06-07T14:44:05.671Z,2.10
2019-06-07T14:46:35.457Z,2.10
2019-06-07T14:49:05.416Z,2.27
2019-06-07T14:51:35.757Z,2.10
2019-06-07T14:54:05.735Z,2.20
2019-06-07T14:56:35.721Z,2.13
2019-06-07T14:59:05.950Z,2.10
2019-06-07T15:01:35.793Z,2.07
2019-06-07T15:04:06.088Z,2.20
2019-06-07T15:06:36.062Z,2.43
2019-06-07T15:09:07.296Z,1.97
2019-06-07T15:11:37.152Z,2.20
2019-06-07T15:14:06.968Z,2.20
2019-06-07T15:16:37.952Z,2.13
2019-06-07T15:19:08.046Z,2.23
2019-06-07T15:21:39.163Z,2.03
2019-06-07T15:24:09.332Z,2.10
2019-06-07T15:26:39.282Z,2.00
2019-06-07T15:29:09.182Z,2.20
2019-06-07T15:31:39.006Z,2.13
2019-06-07T15:34:08.902Z,2.13
2019-06-07T15:36:39.006Z,2.10
2019-06-07T15:39:09.599Z,2.17
2019-06-07T15:41:39.998Z,2.03
2019-06-07T15:44:10.105Z,2.23
2019-06-07T15:46:40.339Z,2.17
2019-06-07T15:49:10.433Z,2.03
2019-06-07T15:51:41.108Z,1.97
2019-06-07T15:54:11.114Z,1.95
2019-06-07T15:56:41.423Z,1.63
2019-06-07T15:59:11.401Z,1.60
2019-06-07T16:01:42.105Z,1.60
2019-06-07T16:04:12.980Z,1.57
2019-06-07T16:06:43.489Z,1.40
2019-06-07T16:09:13.571Z,1.60
2019-06-07T16:11:43.909Z,1.60
2019-06-07T16:14:14.071Z,1.47
2019-06-07T16:16:43.910Z,1.17
2019-06-07T16:19:13.837Z,1.40
2019-06-07T16:21:43.806Z,1.60
2019-06-07T16:24:13.603Z,1.40
2019-06-07T16:26:44.596Z,1.83
2019-06-07T16:29:14.927Z,1.60
2019-06-07T16:31:45.201Z,1.47
2019-06-07T16:34:15.377Z,1.70
2019-06-07T16:36:46.824Z,1.43
2019-06-07T16:39:17.088Z,1.43
2019-06-07T16:41:46.992Z,1.80
2019-06-07T16:44:17.009Z,1.40
2019-06-07T16:46:46.775Z,1.60
2019-06-07T16:49:16.609Z,1.73
2019-06-07T16:51:46.879Z,1.60
2019-06-07T16:54:16.757Z,1.73
2019-06-07T16:56:50.818Z,1.70
2019-06-07T16:59:18.145Z,1.63
2019-06-07T17:01:49.492Z,1.90
2019-06-07T17:04:19.511Z,1.47
2019-06-07T17:06:49.426Z,1.50
2019-06-07T17:09:19.299Z,1.80
2019-06-07T17:11:49.161Z,1.77
2019-06-07T17:14:18.958Z,1.73
2019-06-07T17:16:50.262Z,1.60
2019-06-07T17:19:20.580Z,1.43
2019-06-07T17:21:50.774Z,1.27
2019-06-07T17:24:20.986Z,2.10
2019-06-07T17:26:50.915Z,1.50
2019-06-07T17:29:20.782Z,1.53
2019-06-07T17:31:50.690Z,1.50
2019-06-07T17:34:20.562Z,1.37
2019-06-07T17:36:50.842Z,1.40
2019-06-07T17:39:21.141Z,1.37
2019-06-07T17:42:01.436Z,1.70
2019-06-07T17:44:22.487Z,1.40
2019-06-07T17:46:52.355Z,1.33
2019-06-07T17:49:22.226Z,1.53
2019-06-07T17:51:52.361Z,1.50
2019-06-07T17:54:22.213Z,1.47
2019-06-07T17:56:53.211Z,1.60
2019-06-07T17:59:23.264Z,1.37
2019-06-07T18:02:13.558Z,1.50
2019-06-07T18:04:24.576Z,1.43
2019-06-07T18:06:55.140Z,1.40
2019-06-07T18:09:26.104Z,1.40
2019-06-07T18:11:55.962Z,1.40
2019-06-07T18:14:25.860Z,1.40
2019-06-07T18:16:55.724Z,1.30
2019-06-07T18:19:25.588Z,1.20
2019-06-07T18:21:58.812Z,1.10
2019-06-07T18:24:27.272Z,1.20
2019-06-07T18:26:57.129Z,1.30
2019-06-07T18:29:26.915Z,1.20
2019-06-07T18:31:56.834Z,1.30
2019-06-07T18:34:26.836Z,1.17
2019-06-07T18:36:56.795Z,1.30
2019-06-07T18:39:26.771Z,1.30
2019-06-07T18:41:56.706Z,1.23
2019-06-07T18:44:26.923Z,1.17
2019-06-07T18:46:56.725Z,1.50
2019-06-07T18:49:26.580Z,1.30
2019-06-07T18:52:14.643Z,1.40
2019-06-07T18:54:44.581Z,1.50
2019-06-07T18:57:14.369Z,1.90
2019-06-07T18:59:44.296Z,1.53
2019-06-07T19:02:14.452Z,1.77
2019-06-07T19:04:44.261Z,1.40
2019-06-07T19:07:14.108Z,1.50
2019-06-07T19:09:44.215Z,1.40
2019-06-07T19:12:14.042Z,1.60
2019-06-07T19:14:43.850Z,1.40
2019-06-07T19:17:13.765Z,1.60
2019-06-07T19:19:43.698Z,1.80
2019-06-07T19:22:13.524Z,1.70
2019-06-07T19:24:43.433Z,1.60
2019-06-07T19:27:13.265Z,1.40
2019-06-07T19:29:43.134Z,1.90
2019-06-07T19:32:13.044Z,1.50
2019-06-07T19:34:42.883Z,1.60
2019-06-07T19:37:12.822Z,1.57
2019-06-07T19:39:42.814Z,1.83
2019-06-07T19:42:12.635Z,1.60
2019-06-07T19:44:53.123Z,1.80
2019-06-07T19:47:14.230Z,1.60
2019-06-07T19:49:44.073Z,1.57
2019-06-07T19:52:14.268Z,2.00
2019-06-07T19:54:44.172Z,1.77
2019-06-07T19:57:13.985Z,1.83
2019-06-07T19:59:43.957Z,1.90
2019-06-07T20:02:13.822Z,1.60
2019-06-07T20:04:43.634Z,1.90
2019-06-07T20:07:13.850Z,1.50
2019-06-07T20:09:44.028Z,1.83
2019-06-07T20:12:13.887Z,2.00
2019-06-07T20:14:43.683Z,1.97
2019-06-07T20:17:13.137Z,1.90
2019-06-07T20:19:42.924Z,1.63
2019-06-07T20:22:13.195Z,1.70
2019-06-07T20:24:43.122Z,2.10
2019-06-07T20:27:12.926Z,1.67
2019-06-07T20:29:42.735Z,2.00
2019-06-07T20:32:12.954Z,1.93
2019-06-07T20:34:44.619Z,1.90
2019-06-07T20:37:14.562Z,2.20
2019-06-07T20:39:44.450Z,2.00
2019-06-07T20:42:14.428Z,2.00
2019-06-07T20:44:44.265Z,2.20
2019-06-07T20:47:14.246Z,1.90
2019-06-07T20:49:44.155Z,2.10
2019-06-07T20:52:14.326Z,2.23
2019-06-07T20:54:44.232Z,2.03
2019-06-07T20:57:14.087Z,1.97
2019-06-07T20:59:43.953Z,2.20
2019-06-07T21:02:13.919Z,1.83
2019-06-07T21:04:43.762Z,2.00
2019-06-07T21:07:13.593Z,2.13
2019-06-07T21:09:43.481Z,2.03
2019-06-07T21:12:13.307Z,2.20
2019-06-07T21:14:43.248Z,2.37
2019-06-07T21:17:13.125Z,2.13
2019-06-07T21:19:43.025Z,2.20
2019-06-07T21:22:12.812Z,2.67
2019-06-07T21:24:42.964Z,2.73
2019-06-07T21:27:12.830Z,2.17
2019-06-07T21:29:42.691Z,2.67
2019-06-07T21:32:12.559Z,2.90
2019-06-07T21:34:42.361Z,2.50
2019-06-07T21:37:12.298Z,2.27
2019-06-07T21:39:42.474Z,2.90
2019-06-07T21:42:12.488Z,2.90
2019-06-07T21:44:42.339Z,2.80
2019-06-07T21:47:12.783Z,3.10
2019-06-07T21:49:42.705Z,3.03
2019-06-07T21:52:12.937Z,3.27
2019-06-07T21:54:43.339Z,3.33
2019-06-07T21:57:13.289Z,2.43
2019-06-07T21:59:43.271Z,2.90
2019-06-07T22:02:13.759Z,3.40
2019-06-07T22:04:43.899Z,3.07
2019-06-07T22:07:13.791Z,2.97
2019-06-07T22:09:43.909Z,3.60
2019-06-07T22:12:14.292Z,2.70
2019-06-07T22:14:44.295Z,4.40
2019-06-07T22:17:14.537Z,3.23
2019-06-07T22:19:44.523Z,3.30
2019-06-07T22:22:14.911Z,3.50
2019-06-07T22:24:44.938Z,3.57
2019-06-07T22:27:15.685Z,3.20
2019-06-07T22:29:45.518Z,3.50
2019-06-07T22:32:15.441Z,3.37
2019-06-07T22:34:45.275Z,4.10
2019-06-07T22:37:17.582Z,2.70
2019-06-07T22:39:46.922Z,2.90
2019-06-07T22:42:16.823Z,2.67
2019-06-07T22:44:46.671Z,3.10
2019-06-07T22:47:16.539Z,2.57
2019-06-07T22:49:46.358Z,2.90
2019-06-07T22:52:17.307Z,2.70
2019-06-07T22:54:47.971Z,2.87
2019-06-07T22:57:22.275Z,2.97
2019-06-07T22:59:52.179Z,2.50
2019-06-07T23:02:21.985Z,2.70
2019-06-07T23:04:51.786Z,2.67
2019-06-07T23:07:21.720Z,3.00
2019-06-07T23:09:51.619Z,3.13
2019-06-07T23:12:21.410Z,2.93
2019-06-07T23:14:51.256Z,3.03
2019-06-07T23:17:21.155Z,3.10
2019-06-07T23:19:51.006Z,3.20
2019-06-07T23:22:20.853Z,3.13
2019-06-07T23:24:50.677Z,2.80
2019-06-07T23:27:20.809Z,3.33
2019-06-07T23:29:50.793Z,3.23
2019-06-07T23:32:21.598Z,3.23
2019-06-07T23:34:51.544Z,3.00
2019-06-07T23:37:21.507Z,2.90
2019-06-07T23:39:51.655Z,2.50
2019-06-07T23:42:21.849Z,3.37
2019-06-07T23:44:52.087Z,2.90
2019-06-07T23:47:22.418Z,3.10
2019-06-07T23:49:52.491Z,3.20
2019-06-07T23:52:23.573Z,3.40
2019-06-07T23:54:53.834Z,3.40
2019-06-07T23:57:23.676Z,3.10
2019-06-07T23:59:53.505Z,3.03
